Rankings de siempre
Mejores tiempos personales válidos de equipo a través de todos los eventos y temporadas. Cada equipo aparece una vez por división.
Busca por nombre y abre la página donde está clasificado este récord de división.
23,833 equipos clasificados
| Pos. | Pos. AG | Equipo | Nacionalidad | Categoría de edad | TiempoMejor tiempo | Diferencia |
|---|---|---|---|---|---|---|
| 21876 | #572 | François Filippi & Tony FonsecaFRA · M 45-49 · AG #572 | FRA | M 45-49 | 1:29:52 | +41:21 |
| 21877 | #1315 | Evan Fritzsche & Nils GutschGER · M 16-24 · AG #1315 | GER | M 16-24 | 1:29:53 | +41:22 |
| 21878 | #573 | wanat pawacharakulpong & Sitthiporn MaliwanTHA · M 45-49 · AG #573 | THA | M 45-49 | 1:29:54 | +41:23 |
| 21879 | #3280 | Jared Mollette & Jason HulseUSA · M 35-39 · AG #3280 | USA | M 35-39 | 1:29:54 | +41:23 |
| 21880 | #8635 | 佳文 戚 & 资博 林CHN · M 30-34 · AG #8635 | CHN | M 30-34 | 1:29:54 | +41:23 |
| 21881 | #2592 | Adam Ryszczyk & Seweryn KarczewskiPOL · M 40-44 · AG #2592 | POL | M 40-44 | 1:29:54 | +41:23 |
| 21882 | #3281 | Christian Bahl & Marco BoldtGER · M 35-39 · AG #3281 | GER | M 35-39 | 1:29:54 | +41:23 |
| 21883 | #3450 | Gavin Jansen & Glenn Van SettenNED · M 25-29 · AG #3450 | NED | M 25-29 | 1:29:55 | +41:24 |
| 21884 | #3451 | Mitchell Westdorp & Raymond Badawi MoubayedNED · M 25-29 · AG #3451 | NED | M 25-29 | 1:29:55 | +41:24 |
| 21885 | #8636 | Jevgenij Cistov & David CoxM 30-34 · AG #8636 | -- | M 30-34 | 1:29:55 | +41:24 |
| 21886 | #1316 | Max Mosmuller & Milan StappenbeltNED · M 16-24 · AG #1316 | NED | M 16-24 | 1:29:55 | +41:24 |
| 21887 | #3282 | David Alejandro García Rebollar & Alfredo Ortega EchevarríaMEX · M 35-39 · AG #3282 | MEX | M 35-39 | 1:29:55 | +41:24 |
| 21888 | #8637 | Sebastian Casares Jorge & Aldo Suverza CastilloMEX · M 30-34 · AG #8637 | MEX | M 30-34 | 1:29:56 | +41:25 |
| 21889 | #3283 | Stéphane VUAILLAT & Samuel DewaldFRA · M 35-39 · AG #3283 | FRA | M 35-39 | 1:29:56 | +41:25 |
| 21890 | #8638 | Nicklas Foli & Morten TommerupDEN · M 30-34 · AG #8638 | DEN | M 30-34 | 1:29:56 | +41:25 |
| 21891 | #8 | Jon Walker & David LimGBR · M 60-64 · AG #8 | GBR | M 60-64 | 1:29:56 | +41:25 |
| 21892 | #3452 | Simon Eben & Duc Anh HuynhGER · M 25-29 · AG #3452 | GER | M 25-29 | 1:29:56 | +41:25 |
| 21893 | #8640 | Liam Murray & Ryan WightmanGBR · M 30-34 · AG #8640 | GBR | M 30-34 | 1:29:57 | +41:26 |
| 21894 | #419 | Trevor Smith & Neil JensenGBR · M 50-54 · AG #419 | GBR | M 50-54 | 1:29:57 | +41:26 |
| 21895 | #8639 | Matthieu Domalin & Thomas AubertFRA · M 30-34 · AG #8639 | FRA | M 30-34 | 1:29:57 | +41:26 |
| 21896 | #8641 | Maxime MORATONA & Patrice MORATONAFRA · M 30-34 · AG #8641 | FRA | M 30-34 | 1:29:57 | +41:26 |
| 21897 | #2593 | Manuele Frau & Lorenzo ChiarionITA · M 40-44 · AG #2593 | ITA | M 40-44 | 1:29:57 | +41:26 |
| 21898 | #3284 | Cameron Nyce & Christoph KontopirakisM 35-39 · AG #3284 | -- | M 35-39 | 1:29:57 | +41:26 |
| 21899 | #420 | Rafael Diaz & Matthew SheltonUSA · M 50-54 · AG #420 | USA | M 50-54 | 1:29:58 | +41:27 |
| 21900 | #1318 | Sven Pols & Luc De GeusNED · M 16-24 · AG #1318 | NED | M 16-24 | 1:29:59 | +41:28 |
Página 876 de 954